createdAt,value
2023-01-26T00:01:23.893Z,99292.00
2023-01-26T00:03:55.117Z,99282.00
2023-01-26T00:06:26.341Z,99290.00
2023-01-26T00:08:57.658Z,99287.00
2023-01-26T00:11:30.366Z,99283.00
2023-01-26T00:14:01.608Z,99279.00
2023-01-26T00:16:32.583Z,99275.00
2023-01-26T00:19:03.938Z,99276.00
2023-01-26T00:21:34.901Z,99266.00
2023-01-26T00:24:06.291Z,99253.00
2023-01-26T00:26:37.157Z,99261.00
2023-01-26T00:29:08.011Z,99258.00
2023-01-26T00:31:38.907Z,99254.00
2023-01-26T00:34:09.805Z,99244.00
2023-01-26T00:36:40.648Z,99244.00
2023-01-26T00:39:11.586Z,99236.00
2023-01-26T00:42:00.889Z,99245.00
2023-01-26T00:44:31.861Z,99228.00
2023-01-26T00:47:02.817Z,99232.00
2023-01-26T00:49:34.337Z,99224.00
2023-01-26T00:52:06.092Z,99229.00
2023-01-26T00:54:36.999Z,99229.00
2023-01-26T00:57:07.921Z,99226.00
2023-01-26T00:59:38.819Z,99236.00
2023-01-26T01:02:09.717Z,99220.00
2023-01-26T01:04:40.588Z,99223.00
2023-01-26T01:07:11.449Z,99222.00
2023-01-26T01:09:42.354Z,99225.00
2023-01-26T01:12:13.232Z,99227.00
2023-01-26T01:14:44.226Z,99230.00
2023-01-26T01:17:15.068Z,99224.00
2023-01-26T01:19:46.022Z,99220.00
2023-01-26T01:22:16.945Z,99226.00
2023-01-26T01:24:47.846Z,99227.00
2023-01-26T01:27:18.700Z,99232.00
2023-01-26T01:29:51.317Z,99229.00
2023-01-26T01:32:22.331Z,99213.00
2023-01-26T01:34:53.199Z,99213.00
2023-01-26T01:37:24.091Z,99211.00
2023-01-26T01:39:55.041Z,99221.00
2023-01-26T01:42:26.691Z,99211.00
2023-01-26T01:45:40.633Z,99207.00
2023-01-26T01:48:25.757Z,99204.00
2023-01-26T01:51:02.063Z,99207.00
2023-01-26T01:53:41.779Z,99202.00
2023-01-26T01:56:22.111Z,99200.00
2023-01-26T01:58:57.531Z,99205.00
2023-01-26T02:01:28.485Z,99206.00
2023-01-26T02:04:02.348Z,99208.00
2023-01-26T02:06:42.091Z,99203.00
2023-01-26T02:09:34.375Z,99194.00
2023-01-26T02:12:09.050Z,99191.00
2023-01-26T02:14:41.097Z,99188.00
2023-01-26T02:17:11.977Z,99193.00
2023-01-26T02:19:55.082Z,99189.00
2023-01-26T02:22:38.296Z,99188.00
2023-01-26T02:25:39.121Z,99182.00
2023-01-26T02:28:10.054Z,99178.00
2023-01-26T02:30:41.015Z,99183.00
2023-01-26T02:33:27.326Z,99187.00
2023-01-26T02:35:59.146Z,99182.00
2023-01-26T02:38:45.016Z,99175.00
2023-01-26T02:41:37.651Z,99177.00
2023-01-26T02:44:11.616Z,99169.00
2023-01-26T02:46:42.521Z,99168.00
2023-01-26T02:49:32.121Z,99168.00
2023-01-26T02:52:05.619Z,99161.00
2023-01-26T02:54:54.869Z,99159.00
2023-01-26T02:57:26.508Z,99176.00
2023-01-26T02:59:57.680Z,99152.00
2023-01-26T03:02:28.630Z,99160.00
2023-01-26T03:04:59.525Z,99153.00
2023-01-26T03:07:31.065Z,99158.00
2023-01-26T03:10:02.008Z,99152.00
2023-01-26T03:12:32.879Z,99153.00
2023-01-26T03:15:24.873Z,99151.00
2023-01-26T03:18:33.433Z,99143.00
2023-01-26T03:21:29.226Z,99139.00
2023-01-26T03:24:20.090Z,99136.00
2023-01-26T03:27:09.361Z,99130.00
2023-01-26T03:29:40.332Z,99125.00
2023-01-26T03:32:11.755Z,99121.00
2023-01-26T03:34:42.796Z,99116.00
2023-01-26T03:37:13.633Z,99119.00
2023-01-26T03:40:02.976Z,99119.00
2023-01-26T03:42:53.644Z,99119.00
2023-01-26T03:45:42.862Z,99118.00
2023-01-26T03:48:32.196Z,99126.00
2023-01-26T03:51:21.745Z,99127.00
2023-01-26T03:54:11.148Z,99119.00
2023-01-26T03:56:41.997Z,99117.00
2023-01-26T03:59:15.422Z,99118.00
2023-01-26T04:02:06.413Z,99121.00
2023-01-26T04:04:55.561Z,99120.00
2023-01-26T04:07:44.756Z,99127.00
2023-01-26T04:10:16.091Z,99125.00
2023-01-26T04:13:05.539Z,99129.00
2023-01-26T04:15:56.015Z,99135.00
2023-01-26T04:18:45.645Z,99119.00
2023-01-26T04:21:34.969Z,99124.00
2023-01-26T04:24:16.772Z,99129.00
2023-01-26T04:26:48.711Z,99126.00
2023-01-26T04:29:19.622Z,99126.00
2023-01-26T04:31:50.572Z,99130.00
2023-01-26T04:34:22.092Z,99125.00
2023-01-26T04:36:53.252Z,99127.00
2023-01-26T04:39:24.142Z,99122.00
2023-01-26T04:41:55.020Z,99114.00
2023-01-26T04:44:25.945Z,99106.00
2023-01-26T04:46:56.802Z,99110.00
2023-01-26T04:49:27.642Z,99104.00
2023-01-26T04:51:58.502Z,99113.00
2023-01-26T04:54:29.435Z,99107.00
2023-01-26T04:57:00.280Z,99097.00
2023-01-26T04:59:31.332Z,99108.00
2023-01-26T05:02:02.216Z,99099.00
2023-01-26T05:04:33.218Z,99102.00
2023-01-26T05:07:07.163Z,99101.00
2023-01-26T05:09:38.054Z,99100.00
2023-01-26T05:12:27.441Z,99102.00
2023-01-26T05:14:58.317Z,99094.00
2023-01-26T05:17:29.186Z,99110.00
2023-01-26T05:20:00.082Z,99103.00
2023-01-26T05:22:30.917Z,99098.00
2023-01-26T05:25:01.809Z,99104.00
2023-01-26T05:27:32.726Z,99108.00
2023-01-26T05:30:04.226Z,99099.00
2023-01-26T05:32:35.283Z,99101.00
2023-01-26T05:35:07.919Z,99107.00
2023-01-26T05:37:38.790Z,99114.00
2023-01-26T05:40:11.545Z,99117.00
2023-01-26T05:42:44.056Z,99113.00
2023-01-26T05:45:15.360Z,99114.00
2023-01-26T05:47:47.107Z,99112.00
2023-01-26T05:50:18.382Z,99115.00
2023-01-26T05:52:49.921Z,99110.00
2023-01-26T05:55:20.863Z,99108.00
2023-01-26T05:57:51.682Z,99117.00
2023-01-26T06:00:23.013Z,99120.00
2023-01-26T06:02:53.924Z,99110.00
2023-01-26T06:05:24.837Z,99113.00
2023-01-26T06:07:55.650Z,99132.00
2023-01-26T06:10:26.765Z,99128.00
2023-01-26T06:12:59.355Z,99120.00
2023-01-26T06:15:30.229Z,99120.00
2023-01-26T06:18:02.184Z,99125.00
2023-01-26T06:20:33.077Z,99121.00
2023-01-26T06:23:04.173Z,99135.00
2023-01-26T06:25:35.036Z,99125.00
2023-01-26T06:28:07.821Z,99130.00
2023-01-26T06:30:38.787Z,99130.00
2023-01-26T06:33:09.766Z,99120.00
2023-01-26T06:35:40.647Z,99123.00
2023-01-26T06:38:11.521Z,99130.00
2023-01-26T06:40:42.402Z,99117.00
2023-01-26T06:43:13.349Z,99121.00
2023-01-26T06:45:44.353Z,99120.00
2023-01-26T06:48:15.299Z,99124.00
2023-01-26T06:50:46.576Z,99123.00
2023-01-26T06:53:41.520Z,99121.00
2023-01-26T06:56:12.392Z,99127.00
2023-01-26T06:58:43.453Z,99117.00
2023-01-26T07:01:21.374Z,99118.00
2023-01-26T07:03:55.056Z,99121.00
2023-01-26T07:06:25.896Z,99114.00
2023-01-26T07:08:56.825Z,99127.00
2023-01-26T07:11:30.196Z,99125.00
2023-01-26T07:14:01.144Z,99121.00
2023-01-26T07:16:33.854Z,99126.00
2023-01-26T07:19:05.019Z,99121.00
2023-01-26T07:21:36.106Z,99127.00
2023-01-26T07:24:08.609Z,99141.00
2023-01-26T07:26:39.479Z,99137.00
2023-01-26T07:29:12.747Z,99136.00
2023-01-26T07:31:44.676Z,99132.00
2023-01-26T07:34:15.747Z,99141.00
2023-01-26T07:36:46.690Z,99135.00
2023-01-26T07:39:17.539Z,99136.00
2023-01-26T07:41:50.070Z,99133.00
2023-01-26T07:44:20.929Z,99131.00
2023-01-26T07:46:53.682Z,99132.00
2023-01-26T07:49:24.646Z,99130.00
2023-01-26T07:51:55.523Z,99144.00
2023-01-26T07:54:26.500Z,99145.00
2023-01-26T07:56:57.435Z,99134.00
2023-01-26T07:59:28.426Z,99136.00
2023-01-26T08:01:59.298Z,99137.00
2023-01-26T08:04:30.312Z,99138.00
2023-01-26T08:07:01.445Z,99142.00
2023-01-26T08:09:32.562Z,99133.00
2023-01-26T08:12:03.600Z,99141.00
2023-01-26T08:14:46.376Z,99145.00
2023-01-26T08:17:18.871Z,99142.00
2023-01-26T08:19:49.811Z,99141.00
2023-01-26T08:22:20.723Z,99136.00
2023-01-26T08:24:51.893Z,99140.00
2023-01-26T08:27:23.181Z,99143.00
2023-01-26T08:29:54.072Z,99133.00
2023-01-26T08:32:24.963Z,99131.00
2023-01-26T08:34:55.852Z,99132.00
2023-01-26T08:37:26.686Z,99125.00
2023-01-26T08:39:57.549Z,99129.00
2023-01-26T08:42:28.926Z,99119.00
2023-01-26T08:44:59.886Z,99124.00
2023-01-26T08:47:30.779Z,99126.00
2023-01-26T08:50:01.724Z,99132.00
2023-01-26T08:52:32.548Z,99124.00
2023-01-26T08:55:04.698Z,99112.00
2023-01-26T08:57:35.562Z,99117.00
2023-01-26T09:00:07.614Z,99117.00
2023-01-26T09:02:38.596Z,99119.00
2023-01-26T09:05:10.154Z,99121.00
2023-01-26T09:07:40.992Z,99115.00
2023-01-26T09:10:12.495Z,99113.00
2023-01-26T09:12:43.461Z,99112.00
2023-01-26T09:15:14.895Z,99118.00
2023-01-26T09:17:49.442Z,99118.00
2023-01-26T09:20:20.764Z,99121.00
2023-01-26T09:22:51.590Z,99116.00
2023-01-26T09:25:22.481Z,99118.00
2023-01-26T09:27:53.422Z,99125.00
2023-01-26T09:30:24.959Z,99137.00
2023-01-26T09:33:04.469Z,99128.00
2023-01-26T09:35:35.375Z,99132.00
2023-01-26T09:38:06.306Z,99128.00
2023-01-26T09:41:25.267Z,99135.00
2023-01-26T09:44:09.727Z,99135.00
2023-01-26T09:47:03.642Z,99132.00
2023-01-26T09:49:56.773Z,99134.00
2023-01-26T09:52:33.639Z,99134.00
2023-01-26T09:55:10.516Z,99140.00
2023-01-26T09:58:35.822Z,99136.00
2023-01-26T10:01:30.234Z,99122.00
2023-01-26T10:04:39.240Z,99145.00
2023-01-26T10:07:13.149Z,99136.00
2023-01-26T10:09:49.311Z,99131.00
2023-01-26T10:12:35.591Z,99129.00
2023-01-26T10:15:29.879Z,99121.00
2023-01-26T10:18:07.298Z,99125.00
2023-01-26T10:20:47.411Z,99124.00
2023-01-26T10:23:46.412Z,99119.00
2023-01-26T10:26:21.112Z,99120.00
2023-01-26T10:28:53.128Z,99118.00
2023-01-26T10:31:29.387Z,99124.00
2023-01-26T10:34:16.185Z,99117.00
2023-01-26T10:36:47.606Z,99123.00
2023-01-26T10:39:18.621Z,99126.00
2023-01-26T10:42:02.845Z,99127.00
2023-01-26T10:44:36.864Z,99117.00
2023-01-26T10:47:17.356Z,99120.00
2023-01-26T10:49:49.017Z,99122.00
2023-01-26T10:52:23.142Z,99119.00
2023-01-26T10:55:23.650Z,99121.00
2023-01-26T10:57:54.565Z,99121.00
2023-01-26T11:00:29.755Z,99120.00
2023-01-26T11:03:19.343Z,99122.00
2023-01-26T11:06:15.241Z,99118.00
2023-01-26T11:08:46.422Z,99110.00
2023-01-26T11:11:27.663Z,99107.00
2023-01-26T11:14:19.743Z,99110.00
2023-01-26T11:17:18.808Z,99107.00
2023-01-26T11:20:29.663Z,99100.00
2023-01-26T11:23:35.404Z,99110.00
2023-01-26T11:27:04.806Z,99102.00
2023-01-26T11:29:53.957Z,99097.00
2023-01-26T11:32:48.159Z,99094.00
2023-01-26T11:35:40.537Z,99094.00
2023-01-26T11:38:43.299Z,99088.00
2023-01-26T11:41:32.236Z,99091.00
2023-01-26T11:44:48.918Z,99099.00
2023-01-26T11:47:50.636Z,99089.00
2023-01-26T11:50:33.465Z,99089.00
2023-01-26T11:53:44.745Z,99083.00
2023-01-26T11:56:52.059Z,99073.00
2023-01-26T11:59:33.246Z,99068.00
2023-01-26T12:02:32.382Z,99076.00
2023-01-26T12:05:31.410Z,99068.00
2023-01-26T12:08:38.261Z,99064.00
2023-01-26T12:11:39.566Z,99063.00
2023-01-26T12:14:59.973Z,99062.00
2023-01-26T12:18:01.108Z,99053.00
2023-01-26T12:21:11.071Z,99060.00
2023-01-26T12:24:04.555Z,99059.00
2023-01-26T12:26:46.338Z,99055.00
2023-01-26T12:29:29.609Z,99059.00
2023-01-26T12:32:27.284Z,99047.00
2023-01-26T12:34:58.976Z,99049.00
2023-01-26T12:37:51.020Z,99030.00
2023-01-26T12:40:24.817Z,99031.00
2023-01-26T12:43:36.905Z,99038.00
2023-01-26T12:46:09.312Z,99050.00
2023-01-26T12:48:51.423Z,99032.00
2023-01-26T12:51:35.840Z,99028.00
2023-01-26T12:54:27.403Z,99025.00
2023-01-26T12:57:00.736Z,99020.00
2023-01-26T12:59:46.900Z,99016.00
2023-01-26T13:02:32.488Z,99020.00
2023-01-26T13:05:04.957Z,99016.00
2023-01-26T13:07:40.386Z,99013.00
2023-01-26T13:10:15.228Z,99012.00
2023-01-26T13:12:51.127Z,99017.00
2023-01-26T13:15:28.668Z,99015.00
2023-01-26T13:18:04.580Z,99015.00
2023-01-26T13:20:44.124Z,99014.00
2023-01-26T13:23:43.551Z,99010.00
2023-01-26T13:26:41.759Z,99005.00
2023-01-26T13:29:32.010Z,99007.00
2023-01-26T13:32:23.178Z,99000.00
2023-01-26T13:34:57.897Z,98997.00
2023-01-26T13:38:02.475Z,98995.00
2023-01-26T13:40:51.689Z,98996.00
2023-01-26T13:43:55.316Z,98998.00
2023-01-26T13:46:50.975Z,98998.00
2023-01-26T13:49:42.603Z,99009.00
2023-01-26T13:52:26.634Z,99011.00
2023-01-26T13:55:03.054Z,99008.00
2023-01-26T13:57:33.955Z,99008.00
2023-01-26T14:00:05.303Z,99005.00
2023-01-26T14:02:38.794Z,99005.00
2023-01-26T14:05:24.848Z,99000.00
2023-01-26T14:07:56.668Z,99005.00
2023-01-26T14:10:28.419Z,99010.00
2023-01-26T14:13:01.145Z,99029.00
2023-01-26T14:15:33.525Z,99012.00
2023-01-26T14:18:05.468Z,99012.00
2023-01-26T14:20:39.669Z,99027.00
2023-01-26T14:23:17.348Z,99017.00
2023-01-26T14:26:20.090Z,99022.00
2023-01-26T14:28:51.877Z,99015.00
2023-01-26T14:31:25.580Z,99007.00
2023-01-26T14:33:59.191Z,99032.00
2023-01-26T14:36:39.640Z,99019.00
2023-01-26T14:39:20.699Z,99030.00
2023-01-26T14:41:51.749Z,99025.00
2023-01-26T14:44:22.623Z,99026.00
2023-01-26T14:47:17.694Z,99023.00
2023-01-26T14:49:56.474Z,99030.00
2023-01-26T14:52:39.961Z,99022.00
2023-01-26T14:55:23.635Z,99024.00
2023-01-26T14:57:56.274Z,99024.00
2023-01-26T15:00:39.701Z,99044.00
2023-01-26T15:03:32.804Z,99044.00
2023-01-26T15:06:28.355Z,99039.00
2023-01-26T15:09:28.043Z,99039.00
2023-01-26T15:12:31.997Z,99040.00
2023-01-26T15:15:03.247Z,99044.00
2023-01-26T15:17:41.281Z,99042.00
2023-01-26T15:20:15.333Z,99041.00
2023-01-26T15:22:52.108Z,99039.00
2023-01-26T15:25:26.691Z,99052.00
2023-01-26T15:28:00.192Z,99048.00
2023-01-26T15:30:34.866Z,99057.00
2023-01-26T15:33:05.834Z,99044.00
2023-01-26T15:35:36.704Z,99050.00
2023-01-26T15:38:12.950Z,99052.00
2023-01-26T15:40:43.848Z,99050.00
2023-01-26T15:43:17.769Z,99047.00
2023-01-26T15:46:01.368Z,99049.00
2023-01-26T15:48:34.990Z,99043.00
2023-01-26T15:51:14.176Z,99054.00
2023-01-26T15:53:45.174Z,99042.00
2023-01-26T15:56:16.932Z,99051.00
2023-01-26T15:58:47.788Z,99049.00
2023-01-26T16:01:22.852Z,99059.00
2023-01-26T16:03:53.817Z,99052.00
2023-01-26T16:06:32.647Z,99043.00
2023-01-26T16:09:03.834Z,99052.00
2023-01-26T16:11:40.352Z,99047.00
2023-01-26T16:14:14.418Z,99050.00
2023-01-26T16:16:45.766Z,99060.00
2023-01-26T16:19:34.415Z,99055.00
2023-01-26T16:22:06.043Z,99043.00
2023-01-26T16:24:38.109Z,99051.00
2023-01-26T16:27:10.105Z,99047.00
2023-01-26T16:29:41.038Z,99040.00
2023-01-26T16:32:28.702Z,99054.00
2023-01-26T16:34:59.704Z,99048.00
2023-01-26T16:37:30.536Z,99047.00
2023-01-26T16:40:01.403Z,99063.00
2023-01-26T16:42:34.320Z,99047.00
2023-01-26T16:45:06.402Z,99051.00
2023-01-26T16:47:37.278Z,99068.00
2023-01-26T16:50:09.059Z,99055.00
2023-01-26T16:52:41.227Z,99053.00
2023-01-26T16:55:14.234Z,99056.00
2023-01-26T16:57:49.876Z,99050.00
2023-01-26T17:00:21.460Z,99053.00
2023-01-26T17:02:53.218Z,99060.00
2023-01-26T17:05:24.099Z,99053.00
2023-01-26T17:07:54.989Z,99054.00
2023-01-26T17:10:25.966Z,99057.00
2023-01-26T17:12:56.838Z,99072.00
2023-01-26T17:15:29.264Z,99058.00
2023-01-26T17:18:00.210Z,99053.00
2023-01-26T17:20:31.121Z,99053.00
2023-01-26T17:23:02.003Z,99055.00
2023-01-26T17:25:32.895Z,99063.00
2023-01-26T17:28:03.892Z,99068.00
2023-01-26T17:30:34.881Z,99070.00
2023-01-26T17:33:05.771Z,99068.00
2023-01-26T17:35:36.661Z,99057.00
2023-01-26T17:38:07.535Z,99056.00
2023-01-26T17:40:38.477Z,99064.00
2023-01-26T17:43:09.328Z,99062.00
2023-01-26T17:45:40.362Z,99070.00
2023-01-26T17:48:11.821Z,99063.00
2023-01-26T17:50:49.888Z,99060.00
2023-01-26T17:53:20.879Z,99077.00
2023-01-26T17:55:52.386Z,99071.00
2023-01-26T17:58:23.495Z,99070.00
2023-01-26T18:00:54.402Z,99071.00
2023-01-26T18:03:26.950Z,99077.00
2023-01-26T18:05:58.253Z,99080.00
2023-01-26T18:08:29.172Z,99072.00
2023-01-26T18:11:02.381Z,99072.00
2023-01-26T18:13:33.933Z,99069.00
2023-01-26T18:16:06.916Z,99086.00
2023-01-26T18:18:37.754Z,99081.00
2023-01-26T18:21:17.821Z,99089.00
2023-01-26T18:23:54.578Z,99088.00
2023-01-26T18:26:28.989Z,99085.00
2023-01-26T18:29:00.202Z,99095.00
2023-01-26T18:31:39.615Z,99084.00
2023-01-26T18:34:11.873Z,99084.00
2023-01-26T18:36:42.761Z,99083.00
2023-01-26T18:39:16.684Z,99079.00
2023-01-26T18:41:47.670Z,99084.00
2023-01-26T18:44:18.592Z,99089.00
2023-01-26T18:46:49.500Z,99101.00
2023-01-26T18:49:20.393Z,99081.00
2023-01-26T18:51:52.318Z,99083.00
2023-01-26T18:54:24.409Z,99081.00
2023-01-26T18:56:56.986Z,99081.00
2023-01-26T18:59:27.974Z,99091.00
2023-01-26T19:02:00.447Z,99088.00
2023-01-26T19:04:31.703Z,99087.00
2023-01-26T19:07:02.656Z,99094.00
2023-01-26T19:09:35.757Z,99085.00
2023-01-26T19:12:07.386Z,99091.00
2023-01-26T19:14:38.389Z,99085.00
2023-01-26T19:17:09.317Z,99085.00
2023-01-26T19:19:41.959Z,99085.00
2023-01-26T19:22:13.050Z,99087.00
2023-01-26T19:24:44.138Z,99078.00
2023-01-26T19:27:15.090Z,99086.00
2023-01-26T19:29:46.067Z,99077.00
2023-01-26T19:32:17.063Z,99084.00
2023-01-26T19:34:48.107Z,99082.00
2023-01-26T19:37:19.301Z,99081.00
2023-01-26T19:39:52.964Z,99086.00
2023-01-26T19:42:23.874Z,99080.00
2023-01-26T19:44:54.819Z,99077.00
2023-01-26T19:47:25.661Z,99072.00
2023-01-26T19:49:56.702Z,99080.00
2023-01-26T19:52:29.527Z,99092.00
2023-01-26T19:55:00.521Z,99084.00
2023-01-26T19:57:32.586Z,99093.00
2023-01-26T20:00:08.663Z,99083.00
2023-01-26T20:02:39.849Z,99078.00
2023-01-26T20:05:11.201Z,99083.00
2023-01-26T20:07:42.615Z,99082.00
2023-01-26T20:10:13.718Z,99077.00
2023-01-26T20:12:44.694Z,99077.00
2023-01-26T20:15:15.812Z,99082.00
2023-01-26T20:17:46.769Z,99080.00
2023-01-26T20:20:18.155Z,99094.00
2023-01-26T20:22:50.491Z,99089.00
2023-01-26T20:25:21.447Z,99077.00
2023-01-26T20:27:52.981Z,99097.00
2023-01-26T20:30:24.038Z,99083.00
2023-01-26T20:32:55.107Z,99081.00
2023-01-26T20:35:26.380Z,99083.00
2023-01-26T20:37:58.576Z,99082.00
2023-01-26T20:40:30.284Z,99084.00
2023-01-26T20:43:04.151Z,99085.00
2023-01-26T20:45:35.196Z,99081.00
2023-01-26T20:48:06.722Z,99085.00
2023-01-26T20:50:40.674Z,99081.00
2023-01-26T20:53:11.622Z,99085.00
2023-01-26T20:55:44.983Z,99084.00
2023-01-26T20:58:15.837Z,99080.00
2023-01-26T21:00:46.888Z,99079.00
2023-01-26T21:03:20.052Z,99086.00
2023-01-26T21:05:51.007Z,99092.00
2023-01-26T21:08:21.863Z,99098.00
2023-01-26T21:10:53.252Z,99101.00
2023-01-26T21:13:24.206Z,99094.00
2023-01-26T21:15:55.986Z,99087.00
2023-01-26T21:18:26.950Z,99077.00
2023-01-26T21:21:00.802Z,99099.00
2023-01-26T21:23:34.556Z,99065.00
2023-01-26T21:26:09.677Z,99070.00
2023-01-26T21:28:40.666Z,99071.00
2023-01-26T21:31:15.717Z,99068.00
2023-01-26T21:33:50.112Z,99068.00
2023-01-26T21:36:24.771Z,99060.00
2023-01-26T21:39:00.902Z,99058.00
2023-01-26T21:41:51.858Z,99061.00
2023-01-26T21:44:29.134Z,99066.00
2023-01-26T21:47:05.653Z,99059.00
2023-01-26T21:49:36.492Z,99065.00
2023-01-26T21:52:27.340Z,99056.00
2023-01-26T21:55:00.942Z,99064.00
2023-01-26T21:57:50.091Z,99061.00
2023-01-26T22:00:21.656Z,99084.00
2023-01-26T22:02:54.429Z,99058.00
2023-01-26T22:05:25.365Z,99060.00
2023-01-26T22:07:56.203Z,99065.00
2023-01-26T22:10:27.060Z,99052.00
2023-01-26T22:12:58.068Z,99068.00
2023-01-26T22:15:28.989Z,99064.00
2023-01-26T22:18:02.318Z,99053.00
2023-01-26T22:20:33.193Z,99054.00
2023-01-26T22:23:04.228Z,99057.00
2023-01-26T22:25:39.111Z,99055.00
2023-01-26T22:28:10.067Z,99054.00
2023-01-26T22:30:44.028Z,99052.00
2023-01-26T22:33:15.012Z,99059.00
2023-01-26T22:35:48.802Z,99052.00
2023-01-26T22:38:19.854Z,99056.00
2023-01-26T22:40:50.746Z,99059.00
2023-01-26T22:43:22.457Z,99050.00
2023-01-26T22:45:54.029Z,99044.00
2023-01-26T22:48:24.945Z,99044.00
2023-01-26T22:50:55.825Z,99044.00
2023-01-26T22:53:26.680Z,99032.00
2023-01-26T22:55:57.551Z,99037.00
2023-01-26T22:58:28.622Z,99032.00
2023-01-26T23:01:10.535Z,99029.00
2023-01-26T23:03:42.781Z,99035.00
2023-01-26T23:06:14.970Z,99021.00
2023-01-26T23:08:46.264Z,99024.00
2023-01-26T23:11:26.405Z,99024.00
2023-01-26T23:13:59.546Z,99023.00
2023-01-26T23:16:30.527Z,99027.00
2023-01-26T23:19:03.699Z,99019.00
2023-01-26T23:21:34.638Z,99014.00
2023-01-26T23:24:06.100Z,99014.00
2023-01-26T23:26:37.077Z,99011.00
2023-01-26T23:29:08.002Z,99023.00
2023-01-26T23:31:38.905Z,99012.00
2023-01-26T23:34:10.016Z,99016.00
2023-01-26T23:36:40.935Z,99016.00
2023-01-26T23:39:11.816Z,99011.00
2023-01-26T23:41:42.701Z,99016.00
2023-01-26T23:44:13.753Z,99009.00
2023-01-26T23:46:44.811Z,99011.00
2023-01-26T23:49:15.810Z,99007.00
2023-01-26T23:51:46.752Z,99001.00
2023-01-26T23:54:17.754Z,99002.00
2023-01-26T23:56:48.730Z,98999.00
2023-01-26T23:59:19.570Z,98992.00
